Time;durP1;ratioP1;P1;durP2;ratioP2;P2;SDS_P1;SDS_P2;PMS_P1;PMS_P2;Temp;Humidity;BMP_temperature;BMP_pressure;BME280_temperature;BME280_humidity;BME280_pressure;Samples;Min_cycle;Max_cycle;Signal;HPM_P1;HPM_P2
2022/01/07 00:01:23;;;;;;;13.52;6.35;;;;;;;;;;4936695;28;20039;-70
2022/01/07 00:03:49;;;;;;;9.68;5.93;;;;;;;;;;4933341;29;20036;-72
2022/01/07 00:06:14;;;;;;;5.80;4.68;;;;;;;;;;4933186;28;20396;-70
2022/01/07 00:08:40;;;;;;;9.32;5.20;;;;;;;;;;4936341;28;20066;-70
2022/01/07 00:11:06;;;;;;;7.25;5.63;;;;;;;;;;4929165;28;20143;-71
2022/01/07 00:13:32;;;;;;;8.82;5.40;;;;;;;;;;4937895;28;20085;-70
2022/01/07 00:15:57;;;;;;;10.13;4.90;;;;;;;;;;4934633;29;20114;-70
2022/01/07 00:18:23;;;;;;;13.25;6.47;;;;;;;;;;4935842;28;20040;-70
2022/01/07 00:20:51;;;;;;;10.43;6.10;;;;;;;;;;4932935;28;20087;-72
2022/01/07 00:23:17;;;;;;;10.93;6.68;;;;;;;;;;4938873;28;20050;-70
2022/01/07 00:25:42;;;;;;;14.07;6.35;;;;;;;;;;4931030;29;20040;-72
2022/01/07 00:28:07;;;;;;;12.38;6.55;;;;;;;;;;4937002;29;20122;-70
2022/01/07 00:30:33;;;;;;;13.18;7.03;;;;;;;;;;4934391;28;20492;-72
2022/01/07 00:32:59;;;;;;;14.10;8.32;;;;;;;;;;4934882;28;20038;-72
2022/01/07 00:35:25;;;;;;;14.75;7.85;;;;;;;;;;4952035;28;20039;-70
2022/01/07 00:37:51;;;;;;;11.55;6.95;;;;;;;;;;4933275;28;20042;-72
2022/01/07 00:40:20;;;;;;;17.27;7.90;;;;;;;;;;4952903;28;20039;-71
2022/01/07 00:42:45;;;;;;;17.20;8.10;;;;;;;;;;4936970;28;21143;-71
2022/01/07 00:45:12;;;;;;;15.63;8.15;;;;;;;;;;4931901;28;20040;-72
2022/01/07 00:47:37;;;;;;;13.85;8.63;;;;;;;;;;4930097;29;20401;-70
2022/01/07 00:50:04;;;;;;;21.23;8.77;;;;;;;;;;4935395;29;20046;-71
2022/01/07 00:52:29;;;;;;;13.68;9.00;;;;;;;;;;4932407;29;20031;-70
2022/01/07 00:54:55;;;;;;;13.05;8.18;;;;;;;;;;4933782;28;20043;-71
2022/01/07 00:57:21;;;;;;;15.52;8.05;;;;;;;;;;4934302;28;20085;-70
2022/01/07 00:59:46;;;;;;;19.02;7.97;;;;;;;;;;4934231;29;20515;-69
2022/01/07 01:02:13;;;;;;;16.55;8.40;;;;;;;;;;4935406;29;20042;-72
2022/01/07 01:04:38;;;;;;;16.45;7.50;;;;;;;;;;4930067;28;20057;-69
2022/01/07 01:07:04;;;;;;;12.98;6.95;;;;;;;;;;4934319;28;20073;-71
2022/01/07 01:09:29;;;;;;;11.85;7.10;;;;;;;;;;4945815;28;20046;-70
2022/01/07 01:11:56;;;;;;;13.90;6.50;;;;;;;;;;4936415;28;20031;-69
2022/01/07 01:14:22;;;;;;;11.43;5.93;;;;;;;;;;4937551;29;20413;-69
2022/01/07 01:16:48;;;;;;;14.10;7.82;;;;;;;;;;4930220;28;20858;-71
2022/01/07 01:19:13;;;;;;;15.10;7.13;;;;;;;;;;4932019;28;20101;-69
2022/01/07 01:21:39;;;;;;;18.25;8.75;;;;;;;;;;4930897;29;20044;-70
2022/01/07 01:24:05;;;;;;;17.80;9.60;;;;;;;;;;4935049;29;20035;-70
2022/01/07 01:26:31;;;;;;;15.88;9.48;;;;;;;;;;4950270;28;20043;-70
2022/01/07 01:28:56;;;;;;;17.98;8.60;;;;;;;;;;4932011;28;20118;-71
2022/01/07 01:31:22;;;;;;;15.60;8.95;;;;;;;;;;4934851;29;20042;-70
2022/01/07 01:33:48;;;;;;;15.63;7.88;;;;;;;;;;4938334;28;20038;-71
2022/01/07 01:36:14;;;;;;;19.10;6.88;;;;;;;;;;4936555;28;20369;-69
2022/01/07 01:38:40;;;;;;;15.63;7.22;;;;;;;;;;4929477;28;20077;-70
2022/01/07 01:41:06;;;;;;;16.65;7.05;;;;;;;;;;4934446;28;20134;-70
2022/01/07 01:43:32;;;;;;;14.05;7.25;;;;;;;;;;4932166;29;20035;-70
2022/01/07 01:45:58;;;;;;;13.88;7.07;;;;;;;;;;4937663;29;21077;-70
2022/01/07 01:48:23;;;;;;;10.45;5.65;;;;;;;;;;4932925;28;20046;-71
2022/01/07 01:50:50;;;;;;;15.40;6.53;;;;;;;;;;4933693;28;20035;-71
2022/01/07 01:53:16;;;;;;;14.07;7.40;;;;;;;;;;4930828;29;20043;-70
2022/01/07 01:55:42;;;;;;;14.23;7.30;;;;;;;;;;4936484;28;20053;-70
2022/01/07 01:58:08;;;;;;;17.60;7.88;;;;;;;;;;4940396;29;20041;-70
2022/01/07 02:00:34;;;;;;;13.85;8.05;;;;;;;;;;4935939;28;20066;-72
2022/01/07 02:02:59;;;;;;;17.02;7.18;;;;;;;;;;4937157;28;20070;-70
2022/01/07 02:05:26;;;;;;;14.20;7.07;;;;;;;;;;4933965;28;20071;-70
2022/01/07 02:07:53;;;;;;;14.30;6.43;;;;;;;;;;4935419;28;20533;-69
2022/01/07 02:10:19;;;;;;;10.15;5.30;;;;;;;;;;4931501;28;20051;-71
2022/01/07 02:12:44;;;;;;;10.15;5.55;;;;;;;;;;4931790;28;20032;-70
2022/01/07 02:15:12;;;;;;;8.18;5.18;;;;;;;;;;4945153;28;20146;-71
2022/01/07 02:17:44;;;;;;;8.10;5.03;;;;;;;;;;4933190;29;20042;-71
2022/01/07 02:20:11;;;;;;;8.23;4.20;;;;;;;;;;4930682;28;20126;-70
2022/01/07 02:22:37;;;;;;;10.38;4.93;;;;;;;;;;4932955;28;20488;-72
2022/01/07 02:25:03;;;;;;;9.10;4.75;;;;;;;;;;4935373;28;20043;-70
2022/01/07 02:27:29;;;;;;;8.00;4.80;;;;;;;;;;4936150;29;20040;-70
2022/01/07 02:29:55;;;;;;;10.13;5.05;;;;;;;;;;4930883;29;20078;-70
2022/01/07 02:32:21;;;;;;;6.90;5.32;;;;;;;;;;4929675;28;20110;-71
2022/01/07 02:34:47;;;;;;;6.95;5.32;;;;;;;;;;4933815;28;20653;-72
2022/01/07 02:37:15;;;;;;;10.70;5.97;;;;;;;;;;4932553;28;20031;-70
2022/01/07 02:39:41;;;;;;;8.98;5.43;;;;;;;;;;4932353;29;20035;-70
2022/01/07 02:42:06;;;;;;;10.82;5.15;;;;;;;;;;4925701;28;20039;-71
2022/01/07 02:44:32;;;;;;;9.77;6.03;;;;;;;;;;4951241;28;20592;-71
2022/01/07 02:46:58;;;;;;;8.38;5.55;;;;;;;;;;4931416;28;20034;-71
2022/01/07 02:49:24;;;;;;;10.43;6.25;;;;;;;;;;4933134;29;20035;-71
2022/01/07 02:51:49;;;;;;;9.27;5.82;;;;;;;;;;4932572;28;20094;-71
2022/01/07 02:54:15;;;;;;;10.57;6.25;;;;;;;;;;4926692;28;20039;-71
2022/01/07 02:56:40;;;;;;;11.35;6.25;;;;;;;;;;4928627;28;20039;-70
2022/01/07 02:59:08;;;;;;;9.55;6.28;;;;;;;;;;4929437;28;20043;-72
2022/01/07 03:01:34;;;;;;;8.20;5.43;;;;;;;;;;4930925;29;20115;-71
2022/01/07 03:03:59;;;;;;;9.00;6.00;;;;;;;;;;4936332;29;20031;-70
2022/01/07 03:06:25;;;;;;;8.25;5.18;;;;;;;;;;4928513;28;20448;-70
2022/01/07 03:08:51;;;;;;;7.68;5.40;;;;;;;;;;4937058;28;20649;-71
2022/01/07 03:11:17;;;;;;;9.25;6.03;;;;;;;;;;4933235;28;20046;-72
2022/01/07 03:13:43;;;;;;;9.85;5.57;;;;;;;;;;4930030;29;20567;-70
2022/01/07 03:16:09;;;;;;;11.73;6.35;;;;;;;;;;4934892;28;20118;-70
2022/01/07 03:18:34;;;;;;;11.27;5.95;;;;;;;;;;4927336;28;20086;-70
2022/01/07 03:21:00;;;;;;;10.95;5.97;;;;;;;;;;4930470;28;20035;-70
2022/01/07 03:23:26;;;;;;;10.45;6.47;;;;;;;;;;4929348;29;20090;-70
2022/01/07 03:25:53;;;;;;;8.77;5.63;;;;;;;;;;4931716;29;20477;-70
2022/01/07 03:28:18;;;;;;;9.38;6.40;;;;;;;;;;4934069;28;20516;-71
2022/01/07 03:30:44;;;;;;;11.82;7.43;;;;;;;;;;4935723;28;20039;-70
2022/01/07 03:33:09;;;;;;;9.43;6.50;;;;;;;;;;4931320;29;20031;-70
2022/01/07 03:35:35;;;;;;;13.27;6.10;;;;;;;;;;4930910;29;20043;-70
2022/01/07 03:38:02;;;;;;;11.48;7.20;;;;;;;;;;4932412;29;20455;-70
2022/01/07 03:40:28;;;;;;;8.55;6.00;;;;;;;;;;4952271;28;20549;-71
2022/01/07 03:42:54;;;;;;;11.55;5.78;;;;;;;;;;4929428;29;20524;-70
2022/01/07 03:45:20;;;;;;;8.52;5.35;;;;;;;;;;4951165;28;20039;-70
2022/01/07 03:47:47;;;;;;;8.77;5.68;;;;;;;;;;4935076;29;20124;-70
2022/01/07 03:50:15;;;;;;;12.40;5.30;;;;;;;;;;4932404;28;20182;-71
2022/01/07 03:52:42;;;;;;;10.57;4.55;;;;;;;;;;4953405;28;20508;-72
2022/01/07 03:55:11;;;;;;;11.07;5.53;;;;;;;;;;4936413;29;20186;-70
2022/01/07 03:57:38;;;;;;;9.98;5.07;;;;;;;;;;4933811;29;20043;-72
2022/01/07 04:00:09;;;;;;;6.13;4.43;;;;;;;;;;4930356;29;20035;-70
2022/01/07 04:02:37;;;;;;;10.07;5.55;;;;;;;;;;4938133;28;20553;-71
2022/01/07 04:05:03;;;;;;;8.73;5.28;;;;;;;;;;4937316;29;20035;-70
2022/01/07 04:07:31;;;;;;;9.65;5.95;;;;;;;;;;4937235;28;20630;-71
2022/01/07 04:09:58;;;;;;;8.68;5.15;;;;;;;;;;4933779;29;20043;-70
2022/01/07 04:12:24;;;;;;;8.85;6.05;;;;;;;;;;4932177;28;20039;-71
2022/01/07 04:15:00;;;;;;;10.02;6.18;;;;;;;;;;4938028;28;20027;-71
2022/01/07 04:17:25;;;;;;;7.85;5.05;;;;;;;;;;4934690;29;20071;-69
2022/01/07 04:19:51;;;;;;;9.10;6.03;;;;;;;;;;4937358;28;20066;-70
2022/01/07 04:22:16;;;;;;;9.02;5.88;;;;;;;;;;4936921;28;20130;-70
2022/01/07 04:24:41;;;;;;;9.23;6.32;;;;;;;;;;4932515;28;20264;-70
2022/01/07 04:27:07;;;;;;;9.90;6.45;;;;;;;;;;4937646;29;20053;-70
2022/01/07 04:29:33;;;;;;;9.63;6.30;;;;;;;;;;4928070;29;20043;-71
2022/01/07 04:31:58;;;;;;;11.57;7.18;;;;;;;;;;4936163;28;20385;-71
2022/01/07 04:34:23;;;;;;;10.45;6.43;;;;;;;;;;4935950;28;20040;-73
2022/01/07 04:36:49;;;;;;;11.63;6.95;;;;;;;;;;4947731;28;20059;-70
2022/01/07 04:39:14;;;;;;;11.00;6.50;;;;;;;;;;4933826;29;20039;-73
2022/01/07 04:41:40;;;;;;;10.93;7.03;;;;;;;;;;4936372;29;20531;-70
2022/01/07 04:44:05;;;;;;;9.65;6.10;;;;;;;;;;4927219;29;20042;-71
2022/01/07 04:46:31;;;;;;;12.63;6.65;;;;;;;;;;4936164;28;20035;-70
2022/01/07 04:48:56;;;;;;;8.60;4.88;;;;;;;;;;4926548;29;20040;-69
2022/01/07 04:51:21;;;;;;;9.00;5.70;;;;;;;;;;4925767;29;20532;-70
2022/01/07 04:53:47;;;;;;;6.78;4.15;;;;;;;;;;4924016;29;20043;-71
2022/01/07 04:56:12;;;;;;;11.20;5.90;;;;;;;;;;4924507;28;20035;-70
2022/01/07 04:58:38;;;;;;;10.43;6.00;;;;;;;;;;4927445;28;20035;-70
2022/01/07 05:01:03;;;;;;;8.13;5.63;;;;;;;;;;4924933;29;20043;-70
2022/01/07 05:03:29;;;;;;;9.45;6.03;;;;;;;;;;4924825;29;20055;-71
2022/01/07 05:06:06;;;;;;;9.57;5.88;;;;;;;;;;4945732;28;20047;-71
2022/01/07 05:08:32;;;;;;;8.73;5.50;;;;;;;;;;4925135;28;20500;-71
2022/01/07 05:10:57;;;;;;;10.15;6.32;;;;;;;;;;4925038;29;20045;-70
2022/01/07 05:13:22;;;;;;;10.05;5.45;;;;;;;;;;4925011;29;20032;-71
2022/01/07 05:15:48;;;;;;;9.63;6.07;;;;;;;;;;4925215;29;20183;-71
2022/01/07 05:18:13;;;;;;;7.65;5.95;;;;;;;;;;4925019;28;20035;-70
2022/01/07 05:20:39;;;;;;;10.15;6.45;;;;;;;;;;4932264;28;20040;-71
2022/01/07 05:23:04;;;;;;;10.38;6.53;;;;;;;;;;4924847;29;20582;-70
2022/01/07 05:25:34;;;;;;;12.88;5.55;;;;;;;;;;4924748;29;20544;-71
2022/01/07 05:27:59;;;;;;;8.32;5.32;;;;;;;;;;4924852;29;20159;-71
2022/01/07 05:30:25;;;;;;;8.20;5.10;;;;;;;;;;4925177;28;20098;-70
2022/01/07 05:32:50;;;;;;;11.82;6.63;;;;;;;;;;4945632;28;20087;-71
2022/01/07 05:35:16;;;;;;;8.98;6.15;;;;;;;;;;4924686;29;20094;-71
2022/01/07 05:37:41;;;;;;;9.10;5.82;;;;;;;;;;4925050;29;20070;-70
2022/01/07 05:40:07;;;;;;;6.35;5.13;;;;;;;;;;4924564;28;20126;-70
2022/01/07 05:42:33;;;;;;;10.55;5.95;;;;;;;;;;4924288;28;20568;-71
2022/01/07 05:44:58;;;;;;;9.65;5.55;;;;;;;;;;4924529;29;20035;-70
2022/01/07 05:47:25;;;;;;;8.52;5.40;;;;;;;;;;4924691;29;20138;-70
2022/01/07 05:49:51;;;;;;;12.40;6.13;;;;;;;;;;4924451;29;20075;-70
2022/01/07 05:52:16;;;;;;;11.27;5.88;;;;;;;;;;4926642;28;20032;-71
2022/01/07 05:54:42;;;;;;;10.73;5.28;;;;;;;;;;4931765;29;20034;-71
2022/01/07 05:57:07;;;;;;;6.68;4.70;;;;;;;;;;4924173;29;20031;-70
2022/01/07 05:59:33;;;;;;;7.30;5.18;;;;;;;;;;4924925;29;20046;-71
2022/01/07 06:01:59;;;;;;;10.05;6.40;;;;;;;;;;4928565;28;20694;-70
2022/01/07 06:04:24;;;;;;;10.55;6.28;;;;;;;;;;4924022;28;20036;-70
2022/01/07 06:06:49;;;;;;;9.38;5.93;;;;;;;;;;4924292;29;20520;-71
2022/01/07 06:09:15;;;;;;;7.93;5.38;;;;;;;;;;4941864;28;20040;-71
2022/01/07 06:11:40;;;;;;;9.95;6.13;;;;;;;;;;4931503;29;20032;-71
2022/01/07 06:14:06;;;;;;;7.72;5.32;;;;;;;;;;4931921;28;20040;-70
2022/01/07 06:16:31;;;;;;;9.45;5.47;;;;;;;;;;4939721;28;20043;-70
2022/01/07 06:18:57;;;;;;;8.00;5.00;;;;;;;;;;4924075;29;20087;-70
2022/01/07 06:21:22;;;;;;;5.95;4.50;;;;;;;;;;4923764;29;20794;-70
2022/01/07 06:23:48;;;;;;;9.00;5.03;;;;;;;;;;4922200;28;20044;-71
2022/01/07 06:26:15;;;;;;;7.40;4.68;;;;;;;;;;4924593;28;20575;-71
2022/01/07 06:28:40;;;;;;;9.77;4.80;;;;;;;;;;4931573;29;20059;-70
2022/01/07 06:31:06;;;;;;;7.03;5.15;;;;;;;;;;4922507;29;20082;-71
2022/01/07 06:33:31;;;;;;;8.30;5.28;;;;;;;;;;4923705;28;20055;-71
2022/01/07 06:35:57;;;;;;;10.57;4.95;;;;;;;;;;4925385;28;20119;-71
2022/01/07 06:38:22;;;;;;;8.95;5.78;;;;;;;;;;4930108;28;20031;-70
2022/01/07 06:40:48;;;;;;;7.78;4.90;;;;;;;;;;4924273;28;20047;-71
2022/01/07 06:43:13;;;;;;;7.10;5.43;;;;;;;;;;4924132;28;20032;-70
2022/01/07 06:45:38;;;;;;;7.03;5.20;;;;;;;;;;4923170;28;20040;-71
2022/01/07 06:48:04;;;;;;;9.32;5.05;;;;;;;;;;4938641;28;20441;-71
2022/01/07 06:50:30;;;;;;;9.05;5.75;;;;;;;;;;4923432;29;20040;-71
2022/01/07 06:52:55;;;;;;;8.98;5.25;;;;;;;;;;4923975;29;20507;-71
2022/01/07 06:55:21;;;;;;;7.38;5.13;;;;;;;;;;4924039;28;20070;-71
2022/01/07 06:57:47;;;;;;;9.52;6.10;;;;;;;;;;4934509;28;20046;-71
2022/01/07 07:00:13;;;;;;;7.38;5.35;;;;;;;;;;4925529;29;20055;-71
2022/01/07 07:02:38;;;;;;;10.02;5.82;;;;;;;;;;4923595;29;20048;-71
2022/01/07 07:05:10;;;;;;;11.73;5.80;;;;;;;;;;4922197;29;20039;-72
2022/01/07 07:07:36;;;;;;;10.70;6.03;;;;;;;;;;4924629;28;20066;-71
2022/01/07 07:10:01;;;;;;;12.60;6.00;;;;;;;;;;4927569;28;20492;-70
2022/01/07 07:12:27;;;;;;;13.95;5.60;;;;;;;;;;4932313;29;20074;-70
2022/01/07 07:14:52;;;;;;;8.55;5.55;;;;;;;;;;4927009;29;20039;-70
2022/01/07 07:17:18;;;;;;;9.23;5.88;;;;;;;;;;4927864;28;20052;-71
2022/01/07 07:19:43;;;;;;;13.63;7.30;;;;;;;;;;4934644;28;20035;-72
2022/01/07 07:22:09;;;;;;;13.85;6.93;;;;;;;;;;4936560;29;20036;-71
2022/01/07 07:24:34;;;;;;;12.65;7.40;;;;;;;;;;4931771;28;20197;-71
2022/01/07 07:27:00;;;;;;;12.70;7.00;;;;;;;;;;4935868;29;20492;-71
2022/01/07 07:29:25;;;;;;;11.50;6.63;;;;;;;;;;4936562;28;20039;-71
2022/01/07 07:31:55;;;;;;;14.40;7.05;;;;;;;;;;4939213;28;20035;-71
2022/01/07 07:37:04;;;;;;;12.85;7.25;;;;;;;;;;4936034;29;20067;-73
2022/01/07 07:39:30;;;;;;;11.65;7.25;;;;;;;;;;4931007;28;20067;-72
2022/01/07 07:41:55;;;;;;;10.98;7.43;;;;;;;;;;4932566;28;20034;-71
2022/01/07 07:44:21;;;;;;;11.52;6.60;;;;;;;;;;4943949;28;20024;-71
2022/01/07 07:46:46;;;;;;;7.97;4.72;;;;;;;;;;4934322;28;20047;-73
2022/01/07 07:49:13;;;;;;;10.88;4.95;;;;;;;;;;4936356;28;20094;-72
2022/01/07 07:51:38;;;;;;;5.43;3.55;;;;;;;;;;4935056;28;20023;-72
2022/01/07 07:54:05;;;;;;;4.35;3.50;;;;;;;;;;4932955;28;20382;-72
2022/01/07 07:56:30;;;;;;;4.80;3.22;;;;;;;;;;4932108;29;20389;-72
2022/01/07 07:58:57;;;;;;;5.90;2.40;;;;;;;;;;4929215;29;20107;-73
2022/01/07 08:01:24;;;;;;;3.85;2.45;;;;;;;;;;4934174;28;20043;-73
2022/01/07 08:03:50;;;;;;;4.45;3.35;;;;;;;;;;4932753;28;20483;-72
2022/01/07 08:06:15;;;;;;;5.05;2.90;;;;;;;;;;4933716;29;20039;-74
2022/01/07 08:08:41;;;;;;;7.18;3.80;;;;;;;;;;4935801;29;20035;-76
2022/01/07 08:11:09;;;;;;;4.68;4.10;;;;;;;;;;4935350;28;20066;-71
2022/01/07 08:16:20;;;;;;;3.75;2.90;;;;;;;;;;4936960;28;20547;-72
2022/01/07 08:18:51;;;;;;;2.85;2.63;;;;;;;;;;4949602;28;20031;-71
2022/01/07 08:21:17;;;;;;;2.83;2.63;;;;;;;;;;4932438;29;20035;-74
2022/01/07 08:23:44;;;;;;;2.88;2.30;;;;;;;;;;4932745;28;20027;-72
2022/01/07 08:26:12;;;;;;;2.83;2.10;;;;;;;;;;4925724;28;20058;-71
2022/01/07 08:28:43;;;;;;;3.33;2.25;;;;;;;;;;4925887;29;20039;-72
2022/01/07 08:36:24;;;;;;;4.22;2.35;;;;;;;;;;4940685;28;20039;-72
2022/01/07 08:38:50;;;;;;;2.63;2.42;;;;;;;;;;4930419;29;20815;-71
2022/01/07 08:41:17;;;;;;;3.95;2.80;;;;;;;;;;4925724;29;20543;-71
2022/01/07 08:43:43;;;;;;;4.00;2.67;;;;;;;;;;4922500;29;20028;-71
2022/01/07 08:46:08;;;;;;;3.75;2.85;;;;;;;;;;4938380;28;20759;-69
2022/01/07 08:48:35;;;;;;;5.03;3.00;;;;;;;;;;4922720;28;20047;-73
2022/01/07 08:51:01;;;;;;;8.65;2.97;;;;;;;;;;4928567;29;20035;-72
2022/01/07 08:53:27;;;;;;;4.00;2.95;;;;;;;;;;4941786;28;20400;-72
2022/01/07 08:55:52;;;;;;;5.22;3.17;;;;;;;;;;4932428;29;20036;-73
2022/01/07 08:58:18;;;;;;;5.45;3.30;;;;;;;;;;4933867;28;20063;-72
2022/01/07 09:00:43;;;;;;;3.40;2.63;;;;;;;;;;4939870;28;20031;-73
2022/01/07 09:03:09;;;;;;;10.02;4.07;;;;;;;;;;4929072;29;20039;-73
2022/01/07 09:05:34;;;;;;;4.95;3.70;;;;;;;;;;4924774;29;20043;-73
2022/01/07 09:08:00;;;;;;;4.72;3.00;;;;;;;;;;4925276;28;20039;-73
2022/01/07 09:10:26;;;;;;;6.22;2.65;;;;;;;;;;4926049;28;20059;-73
2022/01/07 09:12:52;;;;;;;5.53;3.25;;;;;;;;;;4931543;29;20066;-73
2022/01/07 09:15:17;;;;;;;5.53;2.70;;;;;;;;;;4923774;29;20123;-73
2022/01/07 09:17:43;;;;;;;5.45;2.70;;;;;;;;;;4923645;29;20142;-72
2022/01/07 09:20:10;;;;;;;5.05;2.67;;;;;;;;;;4939253;28;20114;-71
2022/01/07 09:22:35;;;;;;;3.63;2.63;;;;;;;;;;4923081;28;20121;-72
2022/01/07 09:25:05;;;;;;;3.88;2.83;;;;;;;;;;4924784;29;20528;-71
2022/01/07 09:27:32;;;;;;;3.85;2.97;;;;;;;;;;4924688;29;20147;-74
2022/01/07 09:29:57;;;;;;;4.25;2.28;;;;;;;;;;4928039;28;20039;-72
2022/01/07 09:32:23;;;;;;;3.67;2.33;;;;;;;;;;4939521;28;20149;-72
2022/01/07 09:34:48;;;;;;;3.53;2.28;;;;;;;;;;4926127;29;20519;-72
2022/01/07 09:37:14;;;;;;;3.40;2.30;;;;;;;;;;4923701;28;20199;-72
2022/01/07 09:39:39;;;;;;;4.68;2.05;;;;;;;;;;4930909;29;20031;-72
2022/01/07 09:42:05;;;;;;;3.53;2.30;;;;;;;;;;4930064;28;20488;-72
2022/01/07 09:44:31;;;;;;;2.70;1.60;;;;;;;;;;4924210;28;20043;-73
2022/01/07 09:46:57;;;;;;;5.18;2.03;;;;;;;;;;4922612;29;20040;-74
2022/01/07 09:49:23;;;;;;;3.17;1.80;;;;;;;;;;4938797;28;20035;-73
2022/01/07 09:51:49;;;;;;;2.38;1.83;;;;;;;;;;4932090;28;20027;-74
2022/01/07 09:54:15;;;;;;;2.13;1.80;;;;;;;;;;4927822;28;20058;-73
2022/01/07 09:56:40;;;;;;;2.20;1.70;;;;;;;;;;4938537;28;20094;-74
2022/01/07 09:59:07;;;;;;;2.50;1.73;;;;;;;;;;4926043;29;20063;-76
2022/01/07 10:01:54;;;;;;;2.05;1.80;;;;;;;;;;4923974;29;20054;-71
2022/01/07 10:04:36;;;;;;;2.45;1.85;;;;;;;;;;4931905;28;20539;-75
2022/01/07 10:07:12;;;;;;;;;;;;;;;;;;4924944;29;20486;-73
2022/01/07 10:09:42;;;;;;;2.22;1.63;;;;;;;;;;4927872;29;19934;-75
2022/01/07 10:12:09;;;;;;;1.85;1.65;;;;;;;;;;4926755;29;20046;-71
2022/01/07 10:14:36;;;;;;;1.67;1.45;;;;;;;;;;4925035;28;20047;-70
2022/01/07 10:17:03;;;;;;;2.80;1.50;;;;;;;;;;4931323;28;20098;-70
2022/01/07 10:19:34;;;;;;;2.15;1.48;;;;;;;;;;4929912;29;20385;-72
2022/01/07 10:22:06;;;;;;;1.55;1.33;;;;;;;;;;4927906;29;20039;-73
2022/01/07 10:24:50;;;;;;;5.70;2.25;;;;;;;;;;4928983;28;20057;-72
2022/01/07 10:27:16;;;;;;;1.67;1.40;;;;;;;;;;4928008;28;20051;-73
2022/01/07 10:29:43;;;;;;;1.52;1.42;;;;;;;;;;4928717;29;20031;-72
2022/01/07 10:32:18;;;;;;;2.85;1.70;;;;;;;;;;4930300;29;20409;-72
2022/01/07 10:35:07;;;;;;;1.40;1.30;;;;;;;;;;4930537;29;20035;-72
2022/01/07 10:37:36;;;;;;;3.03;1.48;;;;;;;;;;4928140;28;20097;-69
2022/01/07 10:40:20;;;;;;;4.05;1.55;;;;;;;;;;4932826;29;20085;-70
2022/01/07 10:42:45;;;;;;;2.03;1.42;;;;;;;;;;4933165;28;20039;-69
2022/01/07 10:45:10;;;;;;;1.80;1.60;;;;;;;;;;4931381;29;20483;-72
2022/01/07 10:47:36;;;;;;;3.92;1.40;;;;;;;;;;4937111;28;20044;-70
2022/01/07 10:50:24;;;;;;;3.75;1.55;;;;;;;;;;4933334;28;20031;-72
2022/01/07 10:52:51;;;;;;;2.42;1.30;;;;;;;;;;4946872;28;20028;-70
2022/01/07 10:55:19;;;;;;;3.33;1.70;;;;;;;;;;4932666;29;20087;-70
2022/01/07 10:57:49;;;;;;;4.40;1.67;;;;;;;;;;4941992;28;20039;-70
2022/01/07 11:00:17;;;;;;;2.22;1.38;;;;;;;;;;4929421;28;20042;-70
2022/01/07 11:02:43;;;;;;;2.85;1.55;;;;;;;;;;4929010;29;20051;-71
2022/01/07 11:05:09;;;;;;;3.95;1.30;;;;;;;;;;4929997;28;20035;-72
2022/01/07 11:07:35;;;;;;;1.77;1.55;;;;;;;;;;4942847;28;20035;-71
2022/01/07 11:10:03;;;;;;;1.40;1.30;;;;;;;;;;4929371;28;20028;-71
2022/01/07 11:12:30;;;;;;;2.65;1.40;;;;;;;;;;4935452;28;20446;-70
2022/01/07 11:14:57;;;;;;;4.45;1.30;;;;;;;;;;4926029;29;20493;-71
2022/01/07 11:17:23;;;;;;;3.45;2.33;;;;;;;;;;4927434;29;20425;-71
2022/01/07 11:19:53;;;;;;;1.52;1.38;;;;;;;;;;4930728;28;20054;-69
2022/01/07 11:22:21;;;;;;;2.13;1.80;;;;;;;;;;4928963;28;20114;-71
2022/01/07 11:25:07;;;;;;;1.85;1.75;;;;;;;;;;4933516;29;20050;-71
2022/01/07 11:27:46;;;;;;;1.73;1.60;;;;;;;;;;4926986;29;20040;-71
2022/01/07 11:30:15;;;;;;;2.03;1.67;;;;;;;;;;4929965;28;20108;-71
2022/01/07 11:32:42;;;;;;;1.65;1.48;;;;;;;;;;4932714;28;20027;-72
2022/01/07 11:35:16;;;;;;;3.05;1.70;;;;;;;;;;4928688;29;20039;-71
2022/01/07 11:37:47;;;;;;;4.22;2.13;;;;;;;;;;4932749;29;20173;-71
2022/01/07 11:40:31;;;;;;;2.00;1.73;;;;;;;;;;4928430;29;20042;-71
2022/01/07 11:43:24;;;;;;;4.25;1.80;;;;;;;;;;4934664;28;20050;-71
2022/01/07 11:45:50;;;;;;;2.42;2.22;;;;;;;;;;4936552;28;20035;-71
2022/01/07 11:48:23;;;;;;;7.82;2.40;;;;;;;;;;4941146;28;20405;-71
2022/01/07 11:51:00;;;;;;;2.47;1.70;;;;;;;;;;4926197;29;20079;-71
2022/01/07 11:53:29;;;;;;;2.53;1.90;;;;;;;;;;4943505;28;20083;-71
2022/01/07 11:55:59;;;;;;;1.73;1.63;;;;;;;;;;4932458;28;20130;-71
2022/01/07 11:58:41;;;;;;;2.47;2.00;;;;;;;;;;4931882;29;20149;-70
2022/01/07 12:01:21;;;;;;;2.00;1.80;;;;;;;;;;4931679;29;20031;-70
2022/01/07 12:03:48;;;;;;;1.90;1.70;;;;;;;;;;4934107;28;20059;-71
2022/01/07 12:06:23;;;;;;;3.45;2.50;;;;;;;;;;4929528;28;20027;-71
2022/01/07 12:09:05;;;;;;;2.78;1.80;;;;;;;;;;4933279;29;20143;-72
2022/01/07 12:11:35;;;;;;;;;;;;;;;;;;4927731;28;20115;-72
2022/01/07 12:14:02;;;;;;;1.70;1.60;;;;;;;;;;4932527;29;19919;-74
2022/01/07 12:16:30;;;;;;;2.88;1.90;;;;;;;;;;4934091;28;20205;-74
2022/01/07 12:19:18;;;;;;;1.98;1.65;;;;;;;;;;4937774;29;20437;-74
2022/01/07 12:21:45;;;;;;;2.85;1.83;;;;;;;;;;4947655;28;20050;-74
2022/01/07 12:24:15;;;;;;;3.20;2.15;;;;;;;;;;4939739;28;20123;-75
2022/01/07 12:26:41;;;;;;;2.17;1.85;;;;;;;;;;4928731;28;20058;-74
2022/01/07 12:29:15;;;;;;;2.65;1.83;;;;;;;;;;4927005;28;21293;-74
2022/01/07 12:31:51;;;;;;;4.00;1.67;;;;;;;;;;4937437;29;20027;-74
2022/01/07 12:34:27;;;;;;;2.10;1.90;;;;;;;;;;4928177;29;20123;-73
2022/01/07 12:37:06;;;;;;;3.58;1.83;;;;;;;;;;4930321;28;20074;-71
2022/01/07 12:39:34;;;;;;;5.53;1.75;;;;;;;;;;4927154;28;20043;-72
2022/01/07 12:42:00;;;;;;;2.40;1.70;;;;;;;;;;4931483;29;20043;-71
2022/01/07 12:44:36;;;;;;;5.22;2.08;;;;;;;;;;4931721;29;20058;-71
2022/01/07 12:47:01;;;;;;;1.70;1.60;;;;;;;;;;4939190;29;20035;-71
2022/01/07 12:49:44;;;;;;;2.42;1.83;;;;;;;;;;4933334;28;20045;-72
2022/01/07 12:52:16;;;;;;;;;;;;;;;;;;4935099;29;20492;-71
2022/01/07 12:55:03;;;;;;;2.05;1.63;;;;;;;;;;4937906;28;19919;-71
2022/01/07 12:57:34;;;;;;;2.83;2.10;;;;;;;;;;4932725;29;20047;-71
2022/01/07 13:00:04;;;;;;;1.98;1.27;;;;;;;;;;4938666;28;20051;-71
2022/01/07 13:02:29;;;;;;;2.60;1.83;;;;;;;;;;4935959;28;20094;-71
2022/01/07 13:05:19;;;;;;;2.00;1.83;;;;;;;;;;4938632;28;20035;-71
2022/01/07 13:07:50;;;;;;;6.75;1.98;;;;;;;;;;4935966;28;20071;-71
2022/01/07 13:10:20;;;;;;;1.75;1.10;;;;;;;;;;4933760;28;20035;-71
2022/01/07 13:13:02;;;;;;;1.63;1.00;;;;;;;;;;4935244;28;20027;-71
2022/01/07 13:15:41;;;;;;;0.98;0.82;;;;;;;;;;4933370;28;20043;-71
2022/01/07 13:18:16;;;;;;;0.30;0.30;;;;;;;;;;4936245;28;20059;-70
2022/01/07 13:20:42;;;;;;;2.55;0.75;;;;;;;;;;4933935;28;20042;-71
2022/01/07 13:23:07;;;;;;;7.43;1.10;;;;;;;;;;4932601;28;20032;-70
2022/01/07 13:25:33;;;;;;;0.60;0.60;;;;;;;;;;4933986;29;20098;-71
2022/01/07 13:28:00;;;;;;;0.98;0.63;;;;;;;;;;4934525;29;20110;-71
2022/01/07 13:30:45;;;;;;;1.02;0.60;;;;;;;;;;4948887;28;20117;-74
2022/01/07 13:33:12;;;;;;;0.50;0.50;;;;;;;;;;4930838;28;20470;-71
2022/01/07 13:35:38;;;;;;;0.70;0.70;;;;;;;;;;4931655;28;20066;-71
2022/01/07 13:38:19;;;;;;;0.70;0.70;;;;;;;;;;4932896;28;20073;-70
2022/01/07 13:40:45;;;;;;;3.33;0.90;;;;;;;;;;4933394;28;20146;-73
2022/01/07 13:43:15;;;;;;;1.17;0.90;;;;;;;;;;4933779;28;20035;-71
2022/01/07 13:45:41;;;;;;;1.85;0.88;;;;;;;;;;4938013;28;20098;-70
2022/01/07 13:48:12;;;;;;;1.65;0.75;;;;;;;;;;4937107;28;20128;-73
2022/01/07 13:50:41;;;;;;;1.20;1.00;;;;;;;;;;4934644;29;20481;-71
2022/01/07 13:53:18;;;;;;;0.52;0.52;;;;;;;;;;4935679;28;20484;-70
2022/01/07 13:55:46;;;;;;;1.60;0.73;;;;;;;;;;4934057;28;20051;-70
2022/01/07 13:58:17;;;;;;;0.77;0.73;;;;;;;;;;4934323;28;20207;-73
2022/01/07 14:00:46;;;;;;;6.18;0.90;;;;;;;;;;4935222;29;20036;-73
2022/01/07 14:03:14;;;;;;;3.13;1.85;;;;;;;;;;4934158;29;20074;-73
2022/01/07 14:05:40;;;;;;;4.18;2.20;;;;;;;;;;4929495;28;20445;-73
2022/01/07 14:08:09;;;;;;;2.88;2.10;;;;;;;;;;4931238;28;20066;-70
2022/01/07 14:10:36;;;;;;;2.85;2.42;;;;;;;;;;4931945;29;22000;-71
2022/01/07 14:13:15;;;;;;;7.45;2.58;;;;;;;;;;4925549;28;20036;-71
2022/01/07 14:15:53;;;;;;;3.47;2.53;;;;;;;;;;4932101;28;20122;-71
2022/01/07 14:18:20;;;;;;;3.92;2.25;;;;;;;;;;4932226;28;20039;-71
2022/01/07 14:20:52;;;;;;;2.60;2.33;;;;;;;;;;4935041;29;20057;-72
2022/01/07 14:23:26;;;;;;;4.35;2.83;;;;;;;;;;4936701;29;20039;-70
2022/01/07 14:26:02;;;;;;;5.20;2.63;;;;;;;;;;4936448;29;20035;-70
2022/01/07 14:28:27;;;;;;;2.15;1.85;;;;;;;;;;4938844;28;20035;-71
2022/01/07 14:30:53;;;;;;;5.10;2.92;;;;;;;;;;4935097;28;20035;-70
2022/01/07 14:33:18;;;;;;;2.75;2.08;;;;;;;;;;4937008;29;20158;-69
2022/01/07 14:35:46;;;;;;;3.13;2.20;;;;;;;;;;4937604;29;20036;-71
2022/01/07 14:38:12;;;;;;;6.63;2.47;;;;;;;;;;4937855;28;20039;-71
2022/01/07 14:40:40;;;;;;;6.85;2.60;;;;;;;;;;4935994;28;20040;-71
2022/01/07 14:43:06;;;;;;;4.50;2.65;;;;;;;;;;4935023;29;20520;-71
2022/01/07 14:45:31;;;;;;;3.25;2.13;;;;;;;;;;4937994;29;20116;-70
2022/01/07 14:47:57;;;;;;;3.75;2.40;;;;;;;;;;4945563;28;20182;-71
2022/01/07 14:50:22;;;;;;;6.72;2.50;;;;;;;;;;4940791;28;20039;-71
2022/01/07 14:52:48;;;;;;;5.47;2.22;;;;;;;;;;4935416;28;20035;-71
2022/01/07 14:55:14;;;;;;;3.95;2.42;;;;;;;;;;4933337;29;20031;-70